sensor_id;sensor_type;location;lat;lon;timestamp;P1;durP1;ratioP1;P2;durP2;ratioP2
55009;SDS011;40903;51.638;7.528;2022-12-18T00:02:06;37.47;;;20.00;;
55009;SDS011;40903;51.638;7.528;2022-12-18T00:04:31;34.23;;;19.43;;
55009;SDS011;40903;51.638;7.528;2022-12-18T00:06:56;34.50;;;19.27;;
55009;SDS011;40903;51.638;7.528;2022-12-18T00:09:22;39.20;;;21.33;;
55009;SDS011;40903;51.638;7.528;2022-12-18T00:11:47;38.77;;;20.63;;
55009;SDS011;40903;51.638;7.528;2022-12-18T00:14:13;37.80;;;20.50;;
55009;SDS011;40903;51.638;7.528;2022-12-18T00:16:39;39.50;;;21.53;;
55009;SDS011;40903;51.638;7.528;2022-12-18T00:19:08;33.70;;;19.20;;
55009;SDS011;40903;51.638;7.528;2022-12-18T00:21:41;39.10;;;21.08;;
55009;SDS011;40903;51.638;7.528;2022-12-18T00:24:08;37.95;;;20.27;;
55009;SDS011;40903;51.638;7.528;2022-12-18T00:26:34;35.83;;;20.33;;
55009;SDS011;40903;51.638;7.528;2022-12-18T00:29:03;34.97;;;20.58;;
55009;SDS011;40903;51.638;7.528;2022-12-18T00:31:30;33.50;;;19.67;;
55009;SDS011;40903;51.638;7.528;2022-12-18T00:33:56;40.13;;;19.65;;
55009;SDS011;40903;51.638;7.528;2022-12-18T00:36:24;34.88;;;19.63;;
55009;SDS011;40903;51.638;7.528;2022-12-18T00:38:51;35.35;;;18.45;;
55009;SDS011;40903;51.638;7.528;2022-12-18T00:41:18;33.30;;;19.52;;
55009;SDS011;40903;51.638;7.528;2022-12-18T00:44:03;33.40;;;18.00;;
55009;SDS011;40903;51.638;7.528;2022-12-18T00:46:29;33.03;;;19.35;;
55009;SDS011;40903;51.638;7.528;2022-12-18T00:48:54;29.80;;;19.13;;
55009;SDS011;40903;51.638;7.528;2022-12-18T00:51:20;38.70;;;19.73;;
55009;SDS011;40903;51.638;7.528;2022-12-18T00:53:45;36.37;;;18.83;;
55009;SDS011;40903;51.638;7.528;2022-12-18T00:56:11;36.87;;;19.63;;
55009;SDS011;40903;51.638;7.528;2022-12-18T00:58:37;33.22;;;18.15;;
55009;SDS011;40903;51.638;7.528;2022-12-18T01:01:03;36.27;;;19.60;;
55009;SDS011;40903;51.638;7.528;2022-12-18T01:03:29;38.30;;;19.48;;
55009;SDS011;40903;51.638;7.528;2022-12-18T01:05:55;29.70;;;19.30;;
55009;SDS011;40903;51.638;7.528;2022-12-18T01:08:21;39.00;;;19.90;;
55009;SDS011;40903;51.638;7.528;2022-12-18T01:10:47;36.37;;;18.50;;
55009;SDS011;40903;51.638;7.528;2022-12-18T01:13:12;33.70;;;19.63;;
55009;SDS011;40903;51.638;7.528;2022-12-18T01:15:38;33.33;;;19.67;;
55009;SDS011;40903;51.638;7.528;2022-12-18T01:18:06;29.67;;;17.70;;
55009;SDS011;40903;51.638;7.528;2022-12-18T01:20:32;31.58;;;18.38;;
55009;SDS011;40903;51.638;7.528;2022-12-18T01:22:57;33.00;;;18.37;;
55009;SDS011;40903;51.638;7.528;2022-12-18T01:25:22;33.33;;;17.90;;
55009;SDS011;40903;51.638;7.528;2022-12-18T01:27:48;32.40;;;17.67;;
55009;SDS011;40903;51.638;7.528;2022-12-18T01:30:13;31.63;;;17.97;;
55009;SDS011;40903;51.638;7.528;2022-12-18T01:32:38;33.20;;;17.53;;
55009;SDS011;40903;51.638;7.528;2022-12-18T01:35:04;34.10;;;18.20;;
55009;SDS011;40903;51.638;7.528;2022-12-18T01:37:30;32.58;;;17.27;;
55009;SDS011;40903;51.638;7.528;2022-12-18T01:39:55;31.73;;;18.63;;
55009;SDS011;40903;51.638;7.528;2022-12-18T01:42:21;29.80;;;15.73;;
55009;SDS011;40903;51.638;7.528;2022-12-18T01:47:47;27.30;;;17.17;;
55009;SDS011;40903;51.638;7.528;2022-12-18T01:50:20;29.67;;;16.48;;
55009;SDS011;40903;51.638;7.528;2022-12-18T01:52:46;30.08;;;16.33;;
55009;SDS011;40903;51.638;7.528;2022-12-18T01:55:18;24.88;;;15.70;;
55009;SDS011;40903;51.638;7.528;2022-12-18T01:57:45;33.70;;;17.55;;
55009;SDS011;40903;51.638;7.528;2022-12-18T02:00:13;30.23;;;16.58;;
55009;SDS011;40903;51.638;7.528;2022-12-18T02:02:41;31.65;;;17.40;;
55009;SDS011;40903;51.638;7.528;2022-12-18T02:05:07;29.13;;;17.42;;
55009;SDS011;40903;51.638;7.528;2022-12-18T02:07:43;31.70;;;17.17;;
55009;SDS011;40903;51.638;7.528;2022-12-18T02:10:24;30.80;;;17.25;;
55009;SDS011;40903;51.638;7.528;2022-12-18T02:13:03;29.83;;;15.55;;
55009;SDS011;40903;51.638;7.528;2022-12-18T02:15:58;31.35;;;16.08;;
55009;SDS011;40903;51.638;7.528;2022-12-18T02:18:36;29.65;;;16.15;;
55009;SDS011;40903;51.638;7.528;2022-12-18T02:24:13;30.52;;;16.55;;
55009;SDS011;40903;51.638;7.528;2022-12-18T02:27:04;30.92;;;16.98;;
55009;SDS011;40903;51.638;7.528;2022-12-18T02:29:32;30.50;;;16.98;;
55009;SDS011;40903;51.638;7.528;2022-12-18T02:32:14;30.13;;;16.52;;
55009;SDS011;40903;51.638;7.528;2022-12-18T02:34:43;29.38;;;16.13;;
55009;SDS011;40903;51.638;7.528;2022-12-18T02:37:10;29.42;;;15.73;;
55009;SDS011;40903;51.638;7.528;2022-12-18T02:39:40;26.20;;;14.27;;
55009;SDS011;40903;51.638;7.528;2022-12-18T02:42:08;31.58;;;16.08;;
55009;SDS011;40903;51.638;7.528;2022-12-18T02:44:43;27.20;;;16.10;;
55009;SDS011;40903;51.638;7.528;2022-12-18T02:47:11;26.73;;;14.45;;
55009;SDS011;40903;51.638;7.528;2022-12-18T02:52:32;26.33;;;14.90;;
55009;SDS011;40903;51.638;7.528;2022-12-18T02:57:57;28.13;;;14.85;;
55009;SDS011;40903;51.638;7.528;2022-12-18T03:00:31;31.63;;;15.90;;
55009;SDS011;40903;51.638;7.528;2022-12-18T03:03:39;25.10;;;14.00;;
55009;SDS011;40903;51.638;7.528;2022-12-18T03:06:32;24.27;;;13.88;;
55009;SDS011;40903;51.638;7.528;2022-12-18T03:09:03;27.42;;;13.93;;
55009;SDS011;40903;51.638;7.528;2022-12-18T03:11:34;28.15;;;13.40;;
55009;SDS011;40903;51.638;7.528;2022-12-18T03:14:23;23.50;;;14.02;;
55009;SDS011;40903;51.638;7.528;2022-12-18T03:16:54;24.88;;;14.52;;
55009;SDS011;40903;51.638;7.528;2022-12-18T03:19:26;25.63;;;14.30;;
55009;SDS011;40903;51.638;7.528;2022-12-18T03:21:55;24.38;;;14.25;;
55009;SDS011;40903;51.638;7.528;2022-12-18T03:24:22;25.80;;;13.75;;
55009;SDS011;40903;51.638;7.528;2022-12-18T03:26:54;26.13;;;13.82;;
55009;SDS011;40903;51.638;7.528;2022-12-18T03:30:06;25.92;;;14.75;;
55009;SDS011;40903;51.638;7.528;2022-12-18T03:32:16;24.58;;;13.85;;
55009;SDS011;40903;51.638;7.528;2022-12-18T03:34:49;26.60;;;14.52;;
55009;SDS011;40903;51.638;7.528;2022-12-18T03:37:16;26.92;;;13.85;;
55009;SDS011;40903;51.638;7.528;2022-12-18T03:39:42;25.87;;;14.57;;
55009;SDS011;40903;51.638;7.528;2022-12-18T03:42:14;24.90;;;13.30;;
55009;SDS011;40903;51.638;7.528;2022-12-18T03:50:26;21.88;;;13.40;;
55009;SDS011;40903;51.638;7.528;2022-12-18T03:53:05;21.25;;;13.23;;
55009;SDS011;40903;51.638;7.528;2022-12-18T03:55:35;22.38;;;12.52;;
55009;SDS011;40903;51.638;7.528;2022-12-18T03:58:01;20.73;;;13.18;;
55009;SDS011;40903;51.638;7.528;2022-12-18T04:00:29;22.70;;;13.23;;
55009;SDS011;40903;51.638;7.528;2022-12-18T04:02:56;20.40;;;12.02;;
55009;SDS011;40903;51.638;7.528;2022-12-18T04:05:25;26.10;;;13.63;;
55009;SDS011;40903;51.638;7.528;2022-12-18T04:07:52;21.75;;;12.20;;
55009;SDS011;40903;51.638;7.528;2022-12-18T04:10:19;19.13;;;12.45;;
55009;SDS011;40903;51.638;7.528;2022-12-18T04:12:44;22.93;;;12.90;;
55009;SDS011;40903;51.638;7.528;2022-12-18T04:15:10;23.97;;;11.43;;
55009;SDS011;40903;51.638;7.528;2022-12-18T04:17:36;21.17;;;11.52;;
55009;SDS011;40903;51.638;7.528;2022-12-18T04:20:03;21.90;;;13.13;;
55009;SDS011;40903;51.638;7.528;2022-12-18T04:22:29;25.60;;;12.80;;
55009;SDS011;40903;51.638;7.528;2022-12-18T04:24:54;22.03;;;12.50;;
55009;SDS011;40903;51.638;7.528;2022-12-18T04:27:20;20.73;;;11.00;;
55009;SDS011;40903;51.638;7.528;2022-12-18T04:29:46;24.92;;;13.10;;
55009;SDS011;40903;51.638;7.528;2022-12-18T04:32:11;23.10;;;12.10;;
55009;SDS011;40903;51.638;7.528;2022-12-18T04:34:36;25.90;;;13.10;;
55009;SDS011;40903;51.638;7.528;2022-12-18T04:37:02;21.30;;;12.50;;
55009;SDS011;40903;51.638;7.528;2022-12-18T04:39:27;21.37;;;12.00;;
55009;SDS011;40903;51.638;7.528;2022-12-18T04:41:52;22.63;;;11.90;;
55009;SDS011;40903;51.638;7.528;2022-12-18T04:44:18;23.53;;;11.87;;
55009;SDS011;40903;51.638;7.528;2022-12-18T04:46:43;28.80;;;13.00;;
55009;SDS011;40903;51.638;7.528;2022-12-18T04:49:09;25.00;;;12.47;;
55009;SDS011;40903;51.638;7.528;2022-12-18T04:51:35;17.58;;;11.30;;
55009;SDS011;40903;51.638;7.528;2022-12-18T04:54:01;21.67;;;11.67;;
55009;SDS011;40903;51.638;7.528;2022-12-18T04:56:27;23.53;;;12.30;;
55009;SDS011;40903;51.638;7.528;2022-12-18T04:58:52;23.57;;;13.70;;
55009;SDS011;40903;51.638;7.528;2022-12-18T05:01:17;22.87;;;12.83;;
55009;SDS011;40903;51.638;7.528;2022-12-18T05:03:43;21.30;;;12.30;;
55009;SDS011;40903;51.638;7.528;2022-12-18T05:06:09;21.93;;;13.07;;
55009;SDS011;40903;51.638;7.528;2022-12-18T05:08:35;26.35;;;12.02;;
55009;SDS011;40903;51.638;7.528;2022-12-18T05:11:01;21.30;;;12.10;;
55009;SDS011;40903;51.638;7.528;2022-12-18T05:13:30;19.52;;;12.43;;
55009;SDS011;40903;51.638;7.528;2022-12-18T05:15:56;25.08;;;12.70;;
55009;SDS011;40903;51.638;7.528;2022-12-18T05:18:22;25.53;;;13.33;;
55009;SDS011;40903;51.638;7.528;2022-12-18T05:20:49;28.73;;;14.02;;
55009;SDS011;40903;51.638;7.528;2022-12-18T05:23:15;25.58;;;13.88;;
55009;SDS011;40903;51.638;7.528;2022-12-18T05:25:40;27.20;;;13.30;;
55009;SDS011;40903;51.638;7.528;2022-12-18T05:28:06;23.07;;;12.90;;
55009;SDS011;40903;51.638;7.528;2022-12-18T05:30:31;20.63;;;12.53;;
55009;SDS011;40903;51.638;7.528;2022-12-18T05:32:56;20.67;;;12.73;;
55009;SDS011;40903;51.638;7.528;2022-12-18T05:35:21;23.07;;;11.47;;
55009;SDS011;40903;51.638;7.528;2022-12-18T05:37:47;20.17;;;11.37;;
55009;SDS011;40903;51.638;7.528;2022-12-18T05:40:12;20.50;;;11.53;;
55009;SDS011;40903;51.638;7.528;2022-12-18T05:42:38;20.20;;;12.30;;
55009;SDS011;40903;51.638;7.528;2022-12-18T05:45:04;21.63;;;11.50;;
55009;SDS011;40903;51.638;7.528;2022-12-18T05:47:30;21.83;;;11.60;;
55009;SDS011;40903;51.638;7.528;2022-12-18T05:49:55;20.43;;;11.27;;
55009;SDS011;40903;51.638;7.528;2022-12-18T05:52:20;20.33;;;12.23;;
55009;SDS011;40903;51.638;7.528;2022-12-18T05:54:46;17.20;;;10.47;;
55009;SDS011;40903;51.638;7.528;2022-12-18T05:57:11;23.90;;;12.07;;
55009;SDS011;40903;51.638;7.528;2022-12-18T05:59:36;22.00;;;10.47;;
55009;SDS011;40903;51.638;7.528;2022-12-18T06:02:02;20.23;;;10.97;;
55009;SDS011;40903;51.638;7.528;2022-12-18T06:04:30;17.70;;;10.10;;
55009;SDS011;40903;51.638;7.528;2022-12-18T06:06:55;17.75;;;9.82;;
55009;SDS011;40903;51.638;7.528;2022-12-18T06:09:21;19.23;;;11.10;;
55009;SDS011;40903;51.638;7.528;2022-12-18T06:11:46;18.90;;;11.07;;
55009;SDS011;40903;51.638;7.528;2022-12-18T06:14:11;19.47;;;10.10;;
55009;SDS011;40903;51.638;7.528;2022-12-18T06:16:37;17.87;;;8.80;;
55009;SDS011;40903;51.638;7.528;2022-12-18T06:19:03;17.67;;;9.03;;
55009;SDS011;40903;51.638;7.528;2022-12-18T06:21:30;19.88;;;9.95;;
55009;SDS011;40903;51.638;7.528;2022-12-18T06:23:56;14.15;;;9.32;;
55009;SDS011;40903;51.638;7.528;2022-12-18T06:26:22;16.87;;;9.60;;
55009;SDS011;40903;51.638;7.528;2022-12-18T06:28:48;18.20;;;10.05;;
55009;SDS011;40903;51.638;7.528;2022-12-18T06:31:14;15.77;;;9.83;;
55009;SDS011;40903;51.638;7.528;2022-12-18T06:33:39;16.17;;;10.20;;
55009;SDS011;40903;51.638;7.528;2022-12-18T06:36:06;16.90;;;9.13;;
55009;SDS011;40903;51.638;7.528;2022-12-18T06:38:33;17.20;;;9.38;;
55009;SDS011;40903;51.638;7.528;2022-12-18T06:40:59;14.38;;;9.25;;
55009;SDS011;40903;51.638;7.528;2022-12-18T06:43:25;15.93;;;9.43;;
55009;SDS011;40903;51.638;7.528;2022-12-18T06:45:50;18.20;;;8.80;;
55009;SDS011;40903;51.638;7.528;2022-12-18T06:48:20;14.82;;;8.52;;
55009;SDS011;40903;51.638;7.528;2022-12-18T06:50:45;15.68;;;9.80;;
55009;SDS011;40903;51.638;7.528;2022-12-18T06:53:11;20.03;;;10.00;;
55009;SDS011;40903;51.638;7.528;2022-12-18T06:55:37;19.50;;;9.63;;
55009;SDS011;40903;51.638;7.528;2022-12-18T06:58:02;16.63;;;9.77;;
55009;SDS011;40903;51.638;7.528;2022-12-18T07:00:27;15.50;;;10.27;;
55009;SDS011;40903;51.638;7.528;2022-12-18T07:02:53;17.17;;;10.67;;
55009;SDS011;40903;51.638;7.528;2022-12-18T07:05:18;20.20;;;9.97;;
55009;SDS011;40903;51.638;7.528;2022-12-18T07:07:43;12.53;;;8.40;;
55009;SDS011;40903;51.638;7.528;2022-12-18T07:10:09;16.90;;;8.93;;
55009;SDS011;40903;51.638;7.528;2022-12-18T07:12:34;15.43;;;8.90;;
55009;SDS011;40903;51.638;7.528;2022-12-18T07:15:00;14.67;;;9.30;;
55009;SDS011;40903;51.638;7.528;2022-12-18T07:17:25;18.37;;;9.30;;
55009;SDS011;40903;51.638;7.528;2022-12-18T07:19:51;15.33;;;9.20;;
55009;SDS011;40903;51.638;7.528;2022-12-18T07:22:16;15.37;;;8.47;;
55009;SDS011;40903;51.638;7.528;2022-12-18T07:24:41;13.77;;;8.70;;
55009;SDS011;40903;51.638;7.528;2022-12-18T07:27:07;16.20;;;8.53;;
55009;SDS011;40903;51.638;7.528;2022-12-18T07:29:32;12.93;;;8.33;;
55009;SDS011;40903;51.638;7.528;2022-12-18T07:31:57;12.80;;;7.83;;
55009;SDS011;40903;51.638;7.528;2022-12-18T07:34:22;12.47;;;6.90;;
55009;SDS011;40903;51.638;7.528;2022-12-18T07:36:48;11.27;;;7.23;;
55009;SDS011;40903;51.638;7.528;2022-12-18T07:39:13;9.77;;;6.97;;
55009;SDS011;40903;51.638;7.528;2022-12-18T07:41:39;14.57;;;7.50;;
55009;SDS011;40903;51.638;7.528;2022-12-18T07:44:10;13.80;;;7.20;;
55009;SDS011;40903;51.638;7.528;2022-12-18T07:46:36;10.40;;;6.57;;
55009;SDS011;40903;51.638;7.528;2022-12-18T07:49:01;11.23;;;7.17;;
55009;SDS011;40903;51.638;7.528;2022-12-18T07:51:27;11.43;;;7.33;;
55009;SDS011;40903;51.638;7.528;2022-12-18T07:53:52;11.53;;;7.43;;
55009;SDS011;40903;51.638;7.528;2022-12-18T07:56:17;13.10;;;7.57;;
55009;SDS011;40903;51.638;7.528;2022-12-18T07:58:46;13.30;;;7.47;;
55009;SDS011;40903;51.638;7.528;2022-12-18T08:01:12;13.90;;;7.82;;
55009;SDS011;40903;51.638;7.528;2022-12-18T08:03:39;13.77;;;7.47;;
55009;SDS011;40903;51.638;7.528;2022-12-18T08:06:06;12.07;;;7.10;;
55009;SDS011;40903;51.638;7.528;2022-12-18T08:08:33;11.32;;;6.70;;
55009;SDS011;40903;51.638;7.528;2022-12-18T08:10:58;11.97;;;7.07;;
55009;SDS011;40903;51.638;7.528;2022-12-18T08:13:25;13.30;;;7.30;;
55009;SDS011;40903;51.638;7.528;2022-12-18T08:18:29;14.57;;;7.47;;
55009;SDS011;40903;51.638;7.528;2022-12-18T08:20:56;12.65;;;7.15;;
55009;SDS011;40903;51.638;7.528;2022-12-18T08:23:22;13.57;;;7.87;;
55009;SDS011;40903;51.638;7.528;2022-12-18T08:25:47;13.07;;;7.37;;
55009;SDS011;40903;51.638;7.528;2022-12-18T08:28:15;16.80;;;7.83;;
55009;SDS011;40903;51.638;7.528;2022-12-18T08:30:41;16.52;;;8.23;;
55009;SDS011;40903;51.638;7.528;2022-12-18T08:33:07;14.13;;;8.05;;
55009;SDS011;40903;51.638;7.528;2022-12-18T08:35:34;15.53;;;8.47;;
55009;SDS011;40903;51.638;7.528;2022-12-18T08:38:01;9.45;;;6.05;;
55009;SDS011;40903;51.638;7.528;2022-12-18T08:40:27;13.80;;;7.60;;
55009;SDS011;40903;51.638;7.528;2022-12-18T08:42:52;12.77;;;7.20;;
55009;SDS011;40903;51.638;7.528;2022-12-18T08:45:36;14.88;;;7.80;;
55009;SDS011;40903;51.638;7.528;2022-12-18T08:48:02;16.57;;;8.13;;
55009;SDS011;40903;51.638;7.528;2022-12-18T08:50:27;12.67;;;8.67;;
55009;SDS011;40903;51.638;7.528;2022-12-18T08:52:52;13.90;;;8.63;;
55009;SDS011;40903;51.638;7.528;2022-12-18T08:55:18;13.13;;;8.33;;
55009;SDS011;40903;51.638;7.528;2022-12-18T08:57:43;13.03;;;8.03;;
55009;SDS011;40903;51.638;7.528;2022-12-18T09:00:13;11.45;;;7.60;;
55009;SDS011;40903;51.638;7.528;2022-12-18T09:02:38;13.63;;;8.33;;
55009;SDS011;40903;51.638;7.528;2022-12-18T09:05:04;14.23;;;8.40;;
55009;SDS011;40903;51.638;7.528;2022-12-18T09:07:29;11.93;;;7.70;;
55009;SDS011;40903;51.638;7.528;2022-12-18T09:09:55;14.63;;;8.33;;
55009;SDS011;40903;51.638;7.528;2022-12-18T09:12:40;12.25;;;8.52;;
55009;SDS011;40903;51.638;7.528;2022-12-18T09:15:06;10.90;;;8.00;;
55009;SDS011;40903;51.638;7.528;2022-12-18T09:17:31;10.77;;;7.40;;
55009;SDS011;40903;51.638;7.528;2022-12-18T09:19:56;12.03;;;7.97;;
55009;SDS011;40903;51.638;7.528;2022-12-18T09:22:22;15.97;;;9.30;;
55009;SDS011;40903;51.638;7.528;2022-12-18T09:24:48;13.60;;;8.73;;
55009;SDS011;40903;51.638;7.528;2022-12-18T09:27:13;16.55;;;9.43;;
55009;SDS011;40903;51.638;7.528;2022-12-18T09:29:39;14.50;;;8.60;;
55009;SDS011;40903;51.638;7.528;2022-12-18T09:32:04;13.50;;;8.73;;
55009;SDS011;40903;51.638;7.528;2022-12-18T09:34:30;12.80;;;8.13;;
55009;SDS011;40903;51.638;7.528;2022-12-18T09:36:56;10.93;;;7.65;;
55009;SDS011;40903;51.638;7.528;2022-12-18T09:39:22;12.93;;;8.67;;
55009;SDS011;40903;51.638;7.528;2022-12-18T09:41:52;12.33;;;7.97;;
55009;SDS011;40903;51.638;7.528;2022-12-18T09:44:21;11.88;;;8.02;;
55009;SDS011;40903;51.638;7.528;2022-12-18T09:49:46;11.65;;;7.35;;
55009;SDS011;40903;51.638;7.528;2022-12-18T09:52:28;10.98;;;7.07;;
55009;SDS011;40903;51.638;7.528;2022-12-18T09:54:59;11.32;;;7.13;;
55009;SDS011;40903;51.638;7.528;2022-12-18T09:57:30;13.93;;;7.70;;
55009;SDS011;40903;51.638;7.528;2022-12-18T10:00:02;10.82;;;7.68;;
55009;SDS011;40903;51.638;7.528;2022-12-18T10:02:38;10.07;;;6.45;;
55009;SDS011;40903;51.638;7.528;2022-12-18T10:05:07;12.20;;;7.27;;
55009;SDS011;40903;51.638;7.528;2022-12-18T10:07:43;16.23;;;8.75;;
55009;SDS011;40903;51.638;7.528;2022-12-18T10:10:23;11.85;;;8.20;;
55009;SDS011;40903;51.638;7.528;2022-12-18T10:15:30;12.48;;;7.45;;
55009;SDS011;40903;51.638;7.528;2022-12-18T10:17:58;14.45;;;7.80;;
55009;SDS011;40903;51.638;7.528;2022-12-18T10:20:46;12.30;;;7.88;;
55009;SDS011;40903;51.638;7.528;2022-12-18T10:23:32;11.90;;;7.85;;
55009;SDS011;40903;51.638;7.528;2022-12-18T10:26:05;13.02;;;8.25;;
55009;SDS011;40903;51.638;7.528;2022-12-18T10:28:33;11.82;;;7.68;;
55009;SDS011;40903;51.638;7.528;2022-12-18T10:31:02;11.40;;;8.07;;
55009;SDS011;40903;51.638;7.528;2022-12-18T13:10:11;10.80;;;7.07;;
55009;SDS011;40903;51.638;7.528;2022-12-18T13:12:51;11.30;;;7.50;;
55009;SDS011;40903;51.638;7.528;2022-12-18T13:15:21;11.70;;;7.43;;
55009;SDS011;40903;51.638;7.528;2022-12-18T13:17:53;10.68;;;7.80;;
55009;SDS011;40903;51.638;7.528;2022-12-18T13:20:33;11.25;;;7.65;;
55009;SDS011;40903;51.638;7.528;2022-12-18T13:23:00;13.10;;;8.02;;
55009;SDS011;40903;51.638;7.528;2022-12-18T13:25:30;12.43;;;8.37;;
55009;SDS011;40903;51.638;7.528;2022-12-18T13:38:22;11.07;;;7.77;;
55009;SDS011;40903;51.638;7.528;2022-12-18T13:45:45;14.30;;;8.83;;
55009;SDS011;40903;51.638;7.528;2022-12-18T13:48:33;11.73;;;7.90;;
55009;SDS011;40903;51.638;7.528;2022-12-18T13:51:05;14.77;;;8.87;;
55009;SDS011;40903;51.638;7.528;2022-12-18T13:53:42;12.37;;;8.67;;
55009;SDS011;40903;51.638;7.528;2022-12-18T13:56:10;12.70;;;8.53;;
55009;SDS011;40903;51.638;7.528;2022-12-18T13:58:41;13.10;;;8.67;;
55009;SDS011;40903;51.638;7.528;2022-12-18T14:01:15;12.70;;;8.30;;
55009;SDS011;40903;51.638;7.528;2022-12-18T14:03:47;13.50;;;9.07;;
55009;SDS011;40903;51.638;7.528;2022-12-18T14:06:13;15.30;;;9.73;;
55009;SDS011;40903;51.638;7.528;2022-12-18T14:08:40;13.87;;;8.57;;
55009;SDS011;40903;51.638;7.528;2022-12-18T14:11:11;11.53;;;7.77;;
55009;SDS011;40903;51.638;7.528;2022-12-18T14:13:45;12.93;;;8.33;;
55009;SDS011;40903;51.638;7.528;2022-12-18T14:16:12;13.37;;;9.30;;
55009;SDS011;40903;51.638;7.528;2022-12-18T14:21:21;10.87;;;8.73;;
55009;SDS011;40903;51.638;7.528;2022-12-18T14:24:02;10.53;;;7.43;;
55009;SDS011;40903;51.638;7.528;2022-12-18T14:26:37;11.47;;;8.87;;
55009;SDS011;40903;51.638;7.528;2022-12-18T14:29:19;11.47;;;9.00;;
55009;SDS011;40903;51.638;7.528;2022-12-18T14:34:43;15.43;;;11.13;;
55009;SDS011;40903;51.638;7.528;2022-12-18T14:37:12;17.90;;;13.67;;
55009;SDS011;40903;51.638;7.528;2022-12-18T14:39:39;18.30;;;11.83;;
55009;SDS011;40903;51.638;7.528;2022-12-18T14:42:05;13.77;;;10.50;;
55009;SDS011;40903;51.638;7.528;2022-12-18T14:44:31;12.40;;;9.50;;
55009;SDS011;40903;51.638;7.528;2022-12-18T14:46:56;17.23;;;11.73;;
55009;SDS011;40903;51.638;7.528;2022-12-18T14:52:04;17.03;;;12.77;;
55009;SDS011;40903;51.638;7.528;2022-12-18T14:54:45;26.87;;;14.63;;
55009;SDS011;40903;51.638;7.528;2022-12-18T14:57:22;24.90;;;15.97;;
55009;SDS011;40903;51.638;7.528;2022-12-18T15:00:10;17.03;;;12.83;;
55009;SDS011;40903;51.638;7.528;2022-12-18T15:02:41;14.57;;;12.70;;
55009;SDS011;40903;51.638;7.528;2022-12-18T15:07:48;14.43;;;9.67;;
55009;SDS011;40903;51.638;7.528;2022-12-18T15:10:19;19.77;;;13.37;;
55009;SDS011;40903;51.638;7.528;2022-12-18T15:18:09;16.67;;;11.27;;
55009;SDS011;40903;51.638;7.528;2022-12-18T15:20:47;13.83;;;10.20;;
55009;SDS011;40903;51.638;7.528;2022-12-18T15:26:14;16.63;;;10.83;;
55009;SDS011;40903;51.638;7.528;2022-12-18T15:28:45;16.67;;;10.17;;
55009;SDS011;40903;51.638;7.528;2022-12-18T15:33:39;14.43;;;9.60;;
55009;SDS011;40903;51.638;7.528;2022-12-18T15:36:11;12.70;;;8.97;;
55009;SDS011;40903;51.638;7.528;2022-12-18T15:38:39;15.07;;;9.83;;
55009;SDS011;40903;51.638;7.528;2022-12-18T15:41:14;11.97;;;9.83;;
55009;SDS011;40903;51.638;7.528;2022-12-18T15:43:40;13.13;;;9.13;;
55009;SDS011;40903;51.638;7.528;2022-12-18T15:46:08;13.40;;;9.30;;
55009;SDS011;40903;51.638;7.528;2022-12-18T15:48:39;10.40;;;8.60;;
55009;SDS011;40903;51.638;7.528;2022-12-18T15:51:13;12.53;;;8.50;;
55009;SDS011;40903;51.638;7.528;2022-12-18T15:53:41;11.97;;;9.10;;
55009;SDS011;40903;51.638;7.528;2022-12-18T15:56:10;13.50;;;10.33;;
55009;SDS011;40903;51.638;7.528;2022-12-18T15:58:54;13.67;;;9.90;;
55009;SDS011;40903;51.638;7.528;2022-12-18T16:01:20;15.43;;;10.10;;
55009;SDS011;40903;51.638;7.528;2022-12-18T16:03:48;13.03;;;8.93;;
55009;SDS011;40903;51.638;7.528;2022-12-18T16:06:15;12.57;;;9.23;;
55009;SDS011;40903;51.638;7.528;2022-12-18T16:11:38;13.43;;;9.50;;
55009;SDS011;40903;51.638;7.528;2022-12-18T16:14:23;13.97;;;10.37;;
55009;SDS011;40903;51.638;7.528;2022-12-18T16:16:53;15.47;;;10.30;;
55009;SDS011;40903;51.638;7.528;2022-12-18T16:19:22;18.23;;;12.07;;
55009;SDS011;40903;51.638;7.528;2022-12-18T16:21:48;17.90;;;12.43;;
55009;SDS011;40903;51.638;7.528;2022-12-18T16:24:16;15.83;;;11.97;;
55009;SDS011;40903;51.638;7.528;2022-12-18T16:26:43;17.13;;;12.50;;
55009;SDS011;40903;51.638;7.528;2022-12-18T16:29:09;21.40;;;14.37;;
55009;SDS011;40903;51.638;7.528;2022-12-18T16:31:35;21.33;;;13.87;;
55009;SDS011;40903;51.638;7.528;2022-12-18T16:34:11;22.37;;;14.27;;
55009;SDS011;40903;51.638;7.528;2022-12-18T16:36:48;21.37;;;14.03;;
55009;SDS011;40903;51.638;7.528;2022-12-18T16:39:14;16.80;;;12.30;;
55009;SDS011;40903;51.638;7.528;2022-12-18T16:41:39;17.87;;;12.43;;
55009;SDS011;40903;51.638;7.528;2022-12-18T16:44:05;19.77;;;13.37;;
55009;SDS011;40903;51.638;7.528;2022-12-18T16:46:30;19.40;;;12.57;;
55009;SDS011;40903;51.638;7.528;2022-12-18T16:48:59;19.30;;;11.80;;
55009;SDS011;40903;51.638;7.528;2022-12-18T16:51:25;16.53;;;11.27;;
55009;SDS011;40903;51.638;7.528;2022-12-18T16:53:54;12.10;;;9.43;;
55009;SDS011;40903;51.638;7.528;2022-12-18T16:56:20;12.13;;;9.07;;
55009;SDS011;40903;51.638;7.528;2022-12-18T16:58:52;12.20;;;8.00;;
55009;SDS011;40903;51.638;7.528;2022-12-18T17:01:19;12.27;;;8.70;;
55009;SDS011;40903;51.638;7.528;2022-12-18T17:03:52;10.97;;;7.90;;
55009;SDS011;40903;51.638;7.528;2022-12-18T17:06:20;12.53;;;8.10;;
55009;SDS011;40903;51.638;7.528;2022-12-18T17:08:46;12.63;;;8.37;;
55009;SDS011;40903;51.638;7.528;2022-12-18T17:11:11;19.17;;;10.70;;
55009;SDS011;40903;51.638;7.528;2022-12-18T17:13:37;15.27;;;10.67;;
55009;SDS011;40903;51.638;7.528;2022-12-18T17:16:03;20.83;;;12.87;;
55009;SDS011;40903;51.638;7.528;2022-12-18T17:18:30;16.70;;;11.90;;
55009;SDS011;40903;51.638;7.528;2022-12-18T17:20:59;17.77;;;11.63;;
55009;SDS011;40903;51.638;7.528;2022-12-18T17:23:26;18.40;;;12.23;;
55009;SDS011;40903;51.638;7.528;2022-12-18T17:25:55;20.33;;;12.50;;
55009;SDS011;40903;51.638;7.528;2022-12-18T17:28:21;21.33;;;13.60;;
55009;SDS011;40903;51.638;7.528;2022-12-18T17:30:48;18.40;;;11.93;;
55009;SDS011;40903;51.638;7.528;2022-12-18T17:33:13;21.03;;;13.40;;
55009;SDS011;40903;51.638;7.528;2022-12-18T17:35:38;21.23;;;13.57;;
55009;SDS011;40903;51.638;7.528;2022-12-18T17:38:04;21.17;;;14.10;;
55009;SDS011;40903;51.638;7.528;2022-12-18T17:40:31;34.53;;;19.70;;
55009;SDS011;40903;51.638;7.528;2022-12-18T17:42:57;41.10;;;21.20;;
55009;SDS011;40903;51.638;7.528;2022-12-18T17:45:22;47.50;;;23.20;;
55009;SDS011;40903;51.638;7.528;2022-12-18T17:47:47;41.27;;;21.30;;
55009;SDS011;40903;51.638;7.528;2022-12-18T17:50:13;46.50;;;21.93;;
55009;SDS011;40903;51.638;7.528;2022-12-18T17:52:38;40.93;;;21.37;;
55009;SDS011;40903;51.638;7.528;2022-12-18T17:55:04;38.33;;;19.23;;
55009;SDS011;40903;51.638;7.528;2022-12-18T17:57:29;36.37;;;18.57;;
55009;SDS011;40903;51.638;7.528;2022-12-18T17:59:55;35.47;;;19.03;;
55009;SDS011;40903;51.638;7.528;2022-12-18T18:02:20;33.63;;;17.40;;
55009;SDS011;40903;51.638;7.528;2022-12-18T18:04:46;28.07;;;17.13;;
55009;SDS011;40903;51.638;7.528;2022-12-18T18:07:11;27.53;;;16.83;;
55009;SDS011;40903;51.638;7.528;2022-12-18T18:09:36;30.30;;;16.90;;
55009;SDS011;40903;51.638;7.528;2022-12-18T18:12:02;34.17;;;18.10;;
55009;SDS011;40903;51.638;7.528;2022-12-18T18:14:45;33.70;;;18.40;;
55009;SDS011;40903;51.638;7.528;2022-12-18T18:17:11;33.17;;;18.53;;